Time;durP1;ratioP1;P1;durP2;ratioP2;P2;SDS_P1;SDS_P2;PMS_P1;PMS_P2;Temp;Humidity;BMP_temperature;BMP_pressure;BME280_temperature;BME280_humidity;BME280_pressure;Samples;Min_cycle;Max_cycle;Signal;HPM_P1;HPM_P2
2023/03/24 00:00:39;;;;;;;3.20;2.45;;;16.40;84.60;;;;;;4141876;28;20117;-69
2023/03/24 00:03:19;;;;;;;3.83;2.88;;;16.40;84.70;;;;;;4142518;28;20073;-69
2023/03/24 00:06:03;;;;;;;5.80;2.80;;;16.40;84.80;;;;;;4115288;28;20054;-69
2023/03/24 00:08:46;;;;;;;2.72;2.40;;;16.40;84.80;;;;;;4129888;28;20410;-69
2023/03/24 00:11:28;;;;;;;5.25;2.85;;;16.40;84.80;;;;;;4128418;28;20053;-69
2023/03/24 00:14:12;;;;;;;3.78;2.70;;;16.40;84.80;;;;;;4130023;28;20057;-69
2023/03/24 00:16:53;;;;;;;3.17;2.80;;;16.40;84.80;;;;;;4129226;28;20053;-69
2023/03/24 00:19:37;;;;;;;3.78;2.28;;;16.40;84.80;;;;;;4129263;28;20054;-69
2023/03/24 00:22:20;;;;;;;5.45;2.88;;;16.40;84.90;;;;;;4128067;28;20069;-69
2023/03/24 00:25:03;;;;;;;2.83;2.50;;;16.40;84.90;;;;;;4129420;28;20053;-69
2023/03/24 00:27:47;;;;;;;7.05;2.47;;;16.40;85.00;;;;;;4129453;28;20065;-69
2023/03/24 00:30:30;;;;;;;4.00;2.30;;;16.40;85.00;;;;;;4128487;28;20124;-69
2023/03/24 00:33:12;;;;;;;4.28;2.38;;;16.40;85.10;;;;;;4145230;28;20435;-69
2023/03/24 00:35:52;;;;;;;;;;;16.40;85.00;;;;;;4128797;28;20054;-69
2023/03/24 00:38:35;;;;;;;3.88;2.88;;;16.40;85.10;;;;;;4113468;28;19929;-69
2023/03/24 00:41:18;;;;;;;4.45;2.65;;;16.40;85.10;;;;;;4113973;28;20062;-69
2023/03/24 00:44:04;;;;;;;3.05;2.53;;;16.40;85.10;;;;;;4128519;28;20046;-69
2023/03/24 00:46:54;;;;;;;5.85;2.97;;;16.30;85.20;;;;;;4128000;28;20509;-69
2023/03/24 00:49:44;;;;;;;4.93;2.63;;;16.40;85.10;;;;;;4141894;28;20056;-69
2023/03/24 00:52:32;;;;;;;5.82;2.78;;;16.40;85.20;;;;;;4138514;28;20051;-69
2023/03/24 00:55:14;;;;;;;4.20;2.33;;;16.30;85.20;;;;;;4134295;28;20182;-68
2023/03/24 00:57:56;;;;;;;4.07;2.58;;;16.30;85.20;;;;;;4146767;28;20476;-69
2023/03/24 01:00:40;;;;;;;4.90;2.53;;;16.30;85.30;;;;;;4146359;28;20050;-69
2023/03/24 01:03:26;;;;;;;2.97;2.40;;;16.30;85.30;;;;;;4133985;28;20076;-69
2023/03/24 01:06:07;;;;;;;3.47;2.17;;;16.30;85.30;;;;;;4127689;28;20049;-69
2023/03/24 01:08:52;;;;;;;4.95;2.30;;;16.30;85.30;;;;;;4127731;28;20386;-69
2023/03/24 01:11:37;;;;;;;3.42;2.55;;;16.30;85.40;;;;;;4139420;28;20112;-69
2023/03/24 01:14:18;;;;;;;2.58;1.92;;;16.30;85.50;;;;;;4127543;28;20128;-69
2023/03/24 01:16:59;;;;;;;4.70;2.67;;;16.30;85.60;;;;;;4128552;28;20053;-69
2023/03/24 01:19:42;;;;;;;3.47;2.00;;;16.30;85.60;;;;;;4129042;28;20107;-69
2023/03/24 01:22:27;;;;;;;3.75;2.10;;;16.30;85.60;;;;;;4129340;28;20207;-69
2023/03/24 01:25:09;;;;;;;5.18;2.60;;;16.30;85.60;;;;;;4128912;28;20049;-69
2023/03/24 01:27:52;;;;;;;4.63;2.50;;;16.30;85.60;;;;;;4128518;28;20181;-69
2023/03/24 01:30:33;;;;;;;3.95;2.30;;;16.30;85.60;;;;;;4139347;28;20056;-69
2023/03/24 01:33:14;;;;;;;3.45;2.33;;;16.30;85.70;;;;;;4116480;28;20049;-69
2023/03/24 01:35:57;;;;;;;1.77;1.67;;;16.30;85.80;;;;;;4144517;28;20068;-69
2023/03/24 01:38:38;;;;;;;2.78;2.00;;;16.30;85.70;;;;;;4144650;28;20129;-69
2023/03/24 01:41:19;;;;;;;4.20;2.17;;;16.30;85.80;;;;;;4140241;28;20152;-69
2023/03/24 01:44:00;;;;;;;2.80;2.03;;;16.30;85.80;;;;;;4128427;28;20065;-69
2023/03/24 01:46:41;;;;;;;2.95;1.95;;;16.30;85.80;;;;;;4131999;28;20811;-69
2023/03/24 01:49:23;;;;;;;3.17;2.17;;;16.30;85.90;;;;;;4143330;28;20056;-69
2023/03/24 01:52:10;;;;;;;2.08;1.88;;;16.30;85.90;;;;;;4144059;28;20049;-69
2023/03/24 01:54:53;;;;;;;4.30;1.90;;;16.30;85.90;;;;;;4143395;28;20416;-68
2023/03/24 01:57:44;;;;;;;2.03;1.83;;;16.30;86.00;;;;;;4143392;28;20188;-69
2023/03/24 02:00:26;;;;;;;3.83;2.30;;;16.30;86.00;;;;;;4143429;28;20053;-69
2023/03/24 02:03:28;;;;;;;1.85;1.75;;;16.30;86.10;;;;;;4134458;28;20065;-69
2023/03/24 02:06:14;;;;;;;2.78;2.03;;;16.30;86.10;;;;;;4129284;28;20609;-69
2023/03/24 02:09:00;;;;;;;5.57;1.95;;;16.20;86.10;;;;;;4137365;28;20104;-69
2023/03/24 02:11:42;;;;;;;3.42;2.00;;;16.20;86.10;;;;;;4138314;28;20078;-69
2023/03/24 02:14:23;;;;;;;2.03;1.88;;;16.20;86.20;;;;;;4143371;28;20207;-69
2023/03/24 02:17:43;;;;;;;1.92;1.60;;;16.20;86.20;;;;;;4143089;28;20065;-69
2023/03/24 02:20:45;;;;;;;3.35;2.13;;;16.20;86.20;;;;;;4143545;28;20057;-69
2023/03/24 02:24:21;;;;;;;1.90;1.77;;;16.20;86.20;;;;;;4116363;28;20139;-69
2023/03/24 02:27:19;;;;;;;2.42;1.85;;;16.20;86.40;;;;;;4066295;29;20128;-69
2023/03/24 02:30:33;;;;;;;2.72;1.70;;;16.20;86.20;;;;;;4092745;28;20094;-69
2023/03/24 02:33:44;;;;;;;2.08;1.98;;;16.20;86.30;;;;;;4137687;28;20057;-69
2023/03/24 02:36:56;;;;;;;1.77;1.65;;;16.20;86.40;;;;;;4143477;28;20056;-69
2023/03/24 02:40:06;;;;;;;4.32;2.03;;;16.20;86.40;;;;;;4141605;28;20052;-69
2023/03/24 02:43:00;;;;;;;2.00;1.90;;;16.20;86.50;;;;;;4145792;28;20121;-69
2023/03/24 02:45:49;;;;;;;3.35;2.13;;;16.20;86.50;;;;;;4158763;28;20183;-68
2023/03/24 02:48:37;;;;;;;3.50;2.15;;;16.20;86.60;;;;;;4158640;28;20492;-69
2023/03/24 02:51:25;;;;;;;3.47;1.80;;;16.20;86.70;;;;;;4127481;28;20071;-69
2023/03/24 02:54:12;;;;;;;3.47;1.83;;;16.20;86.70;;;;;;4137598;28;20045;-68
2023/03/24 02:56:59;;;;;;;2.15;1.90;;;16.20;86.70;;;;;;4149588;28;20065;-68
2023/03/24 03:00:09;;;;;;;3.13;1.90;;;16.20;86.70;;;;;;4134536;28;20123;-69
2023/03/24 03:03:13;;;;;;;2.45;1.75;;;16.20;86.70;;;;;;4138032;28;20057;-68
2023/03/24 03:05:57;;;;;;;2.50;1.75;;;16.20;86.70;;;;;;4139750;28;20488;-69
2023/03/24 03:08:40;;;;;;;2.28;2.13;;;16.10;86.70;;;;;;4134080;28;20061;-69
2023/03/24 03:11:21;;;;;;;1.80;1.70;;;16.20;86.70;;;;;;4126557;28;20065;-68
2023/03/24 03:14:08;;;;;;;1.95;1.77;;;16.20;86.80;;;;;;4140797;28;20444;-68
2023/03/24 03:16:58;;;;;;;2.17;1.92;;;16.10;86.80;;;;;;4140880;28;20127;-68
2023/03/24 03:19:43;;;;;;;3.67;1.65;;;16.10;86.80;;;;;;4129060;28;20057;-68
2023/03/24 03:22:28;;;;;;;2.20;2.00;;;16.10;86.90;;;;;;4130646;28;20045;-68
2023/03/24 03:25:11;;;;;;;2.78;2.13;;;16.10;86.80;;;;;;4140474;28;20053;-68
2023/03/24 03:27:55;;;;;;;3.38;2.05;;;16.10;86.90;;;;;;4142302;28;20092;-68
2023/03/24 03:30:41;;;;;;;2.22;2.00;;;16.10;87.00;;;;;;4133933;28;20179;-69
2023/03/24 03:33:27;;;;;;;2.85;2.10;;;16.10;87.00;;;;;;4152989;28;20127;-68
2023/03/24 03:36:15;;;;;;;2.20;1.92;;;16.10;87.10;;;;;;4158354;28;20063;-69
2023/03/24 03:39:03;;;;;;;3.63;2.67;;;16.10;87.20;;;;;;4134685;28;20057;-68
2023/03/24 03:41:45;;;;;;;2.13;1.90;;;16.20;87.30;;;;;;4148226;28;20064;-69
2023/03/24 03:44:26;;;;;;;5.72;2.45;;;16.20;87.30;;;;;;4159304;28;20072;-68
2023/03/24 03:47:08;;;;;;;2.42;2.03;;;16.20;87.30;;;;;;4168662;28;20055;-68
2023/03/24 03:49:53;;;;;;;2.00;1.90;;;16.20;87.30;;;;;;4110243;28;20528;-68
2023/03/24 03:52:34;;;;;;;1.17;1.00;;;16.20;87.30;;;;;;4111390;28;20061;-68
2023/03/24 03:55:15;;;;;;;1.17;1.08;;;16.20;87.40;;;;;;4110108;28;20433;-68
2023/03/24 03:57:56;;;;;;;;;;;16.30;87.20;;;;;;4133408;28;20053;-68
2023/03/24 04:00:44;;;;;;;0.98;0.95;;;16.30;87.10;;;;;;4140351;28;19932;-68
2023/03/24 04:04:24;;;;;;;1.23;1.03;;;16.30;86.90;;;;;;4141414;28;20397;-68
2023/03/24 04:07:39;;;;;;;2.30;1.27;;;16.30;87.80;;;;;;4139330;28;20057;-68
2023/03/24 04:10:49;;;;;;;3.35;0.93;;;16.30;86.80;;;;;;4129162;28;20069;-68
2023/03/24 04:13:40;;;;;;;2.63;1.20;;;16.30;86.70;;;;;;4136487;28;20401;-68
2023/03/24 04:16:56;;;;;;;2.38;1.23;;;16.30;86.70;;;;;;4110447;28;20061;-67
2023/03/24 04:19:59;;;;;;;3.60;1.25;;;16.30;86.20;;;;;;4129311;28;20061;-68
2023/03/24 04:22:52;;;;;;;3.65;1.10;;;16.40;86.20;;;;;;4144478;28;20454;-68
2023/03/24 04:25:45;;;;;;;2.10;1.17;;;16.40;86.00;;;;;;4120773;28;20158;-68
2023/03/24 04:28:33;;;;;;;2.33;1.25;;;16.40;85.80;;;;;;4101623;28;20203;-68
2023/03/24 04:31:23;;;;;;;1.38;1.17;;;16.50;85.70;;;;;;4111688;28;20493;-67
2023/03/24 04:34:11;;;;;;;2.97;1.17;;;16.50;85.60;;;;;;4125309;28;20096;-68
2023/03/24 04:37:02;;;;;;;2.58;1.02;;;16.50;85.30;;;;;;4126377;28;20054;-68
2023/03/24 04:39:57;;;;;;;1.73;0.93;;;16.50;84.90;;;;;;4093139;28;20121;-68
2023/03/24 04:42:44;;;;;;;2.17;1.38;;;16.60;84.90;;;;;;4103791;28;20082;-68
2023/03/24 04:45:25;;;;;;;3.97;1.33;;;16.60;84.80;;;;;;4103975;28;20054;-68
2023/03/24 04:48:28;;;;;;;3.33;1.00;;;16.60;84.50;;;;;;4085056;28;20065;-67
2023/03/24 04:51:22;;;;;;;3.13;0.95;;;16.60;85.00;;;;;;4095972;28;20061;-68
2023/03/24 04:54:17;;;;;;;1.88;0.90;;;16.60;84.10;;;;;;4096125;28;20498;-68
2023/03/24 04:57:04;;;;;;;4.43;1.02;;;16.60;84.10;;;;;;4095781;28;20402;-68
2023/03/24 04:59:51;;;;;;;3.40;1.20;;;16.50;84.00;;;;;;4095672;28;20071;-68
2023/03/24 05:02:33;;;;;;;4.78;1.17;;;16.50;83.80;;;;;;4095753;28;20134;-68
2023/03/24 05:05:20;;;;;;;3.80;1.10;;;16.50;84.70;;;;;;4080262;28;20055;-68
2023/03/24 05:08:02;;;;;;;6.50;1.45;;;16.40;84.00;;;;;;4096200;28;20054;-68
2023/03/24 05:10:46;;;;;;;5.40;1.10;;;16.40;83.70;;;;;;4111880;28;20409;-68
2023/03/24 05:13:27;;;;;;;4.80;1.17;;;16.40;83.80;;;;;;4123044;28;20053;-68
2023/03/24 05:16:14;;;;;;;5.47;1.38;;;16.50;84.00;;;;;;4123025;28;20053;-68
2023/03/24 05:19:04;;;;;;;2.97;1.42;;;16.50;84.10;;;;;;4096384;28;20050;-68
2023/03/24 05:21:46;;;;;;;7.90;2.00;;;16.40;84.20;;;;;;4102993;28;20066;-68
2023/03/24 05:24:27;;;;;;;5.75;1.63;;;16.50;84.00;;;;;;4119208;28;20389;-68
2023/03/24 05:27:09;;;;;;;5.35;1.55;;;16.50;84.00;;;;;;4129087;28;20500;-68
2023/03/24 05:29:50;;;;;;;3.90;1.25;;;16.50;84.00;;;;;;4111518;28;20127;-68
2023/03/24 05:32:35;;;;;;;7.07;1.77;;;16.50;84.90;;;;;;4112742;28;20085;-68
2023/03/24 05:35:16;;;;;;;7.45;1.75;;;16.50;83.90;;;;;;4117899;28;20057;-68
2023/03/24 05:37:57;;;;;;;3.47;1.07;;;16.50;83.70;;;;;;4133212;28;20049;-68
2023/03/24 05:40:38;;;;;;;9.65;2.17;;;16.60;84.50;;;;;;4144726;28;20942;-68
2023/03/24 05:43:27;;;;;;;6.63;1.48;;;16.60;83.70;;;;;;4111624;28;20513;-68
2023/03/24 05:46:17;;;;;;;5.90;1.92;;;16.60;83.40;;;;;;4127409;28;20057;-68
2023/03/24 05:48:59;;;;;;;6.13;1.80;;;16.70;83.20;;;;;;4114991;28;20173;-68
2023/03/24 05:51:46;;;;;;;6.05;1.55;;;16.60;83.10;;;;;;4135255;28;20416;-69
2023/03/24 05:54:27;;;;;;;5.05;1.75;;;16.60;84.30;;;;;;4128126;28;20209;-69
2023/03/24 05:57:23;;;;;;;6.15;2.20;;;16.60;83.60;;;;;;4140853;28;20103;-69
2023/03/24 06:00:25;;;;;;;8.05;1.67;;;16.60;83.80;;;;;;4145299;28;20404;-68
2023/03/24 06:03:17;;;;;;;6.90;1.70;;;16.50;83.80;;;;;;4159621;28;20492;-68
2023/03/24 06:06:08;;;;;;;9.15;2.10;;;16.60;83.90;;;;;;4128613;28;20057;-68
2023/03/24 06:08:53;;;;;;;6.60;2.30;;;16.60;83.70;;;;;;4126758;28;20052;-68
2023/03/24 06:11:34;;;;;;;10.40;2.20;;;16.60;83.60;;;;;;4127118;28;20058;-68
2023/03/24 06:14:20;;;;;;;8.93;2.25;;;16.60;83.30;;;;;;4129547;28;20052;-68
2023/03/24 06:17:13;;;;;;;8.73;2.50;;;16.60;82.70;;;;;;4142842;28;20049;-68
2023/03/24 06:20:03;;;;;;;11.10;2.47;;;16.50;82.70;;;;;;4140285;28;20400;-68
2023/03/24 06:22:57;;;;;;;9.93;2.35;;;16.60;83.10;;;;;;4137786;28;20092;-68
2023/03/24 06:25:44;;;;;;;4.20;1.50;;;16.50;82.80;;;;;;4143038;28;20061;-69
2023/03/24 06:28:33;;;;;;;5.82;2.17;;;16.50;83.10;;;;;;4155907;28;20120;-69
2023/03/24 06:31:22;;;;;;;4.97;1.60;;;16.40;82.90;;;;;;4159196;28;20060;-68
2023/03/24 06:34:06;;;;;;;5.55;1.80;;;16.50;83.50;;;;;;4134045;28;20084;-68
2023/03/24 06:36:47;;;;;;;10.02;1.65;;;16.50;83.50;;;;;;4127813;28;20140;-67
2023/03/24 06:39:28;;;;;;;7.43;1.85;;;16.60;83.60;;;;;;4139193;28;20378;-66
2023/03/24 06:42:09;;;;;;;8.93;2.30;;;16.50;83.30;;;;;;4142829;28;20045;-68
2023/03/24 06:44:51;;;;;;;;;;;16.60;83.90;;;;;;4126755;28;20053;-70
2023/03/24 06:47:31;;;;;;;9.30;2.28;;;16.60;83.90;;;;;;4126142;28;20011;-67
2023/03/24 06:50:14;;;;;;;11.40;3.30;;;16.70;83.70;;;;;;4132690;28;20180;-67
2023/03/24 06:52:55;;;;;;;5.95;2.13;;;16.70;83.50;;;;;;4122761;28;20820;-68
2023/03/24 06:55:37;;;;;;;8.73;1.95;;;16.80;83.70;;;;;;4147129;28;20499;-69
2023/03/24 06:58:18;;;;;;;4.90;2.10;;;16.80;83.40;;;;;;4125122;28;20128;-70
2023/03/24 07:01:02;;;;;;;4.80;1.92;;;16.80;83.20;;;;;;4127139;28;20049;-69
2023/03/24 07:03:48;;;;;;;7.22;2.10;;;16.80;83.40;;;;;;4143934;28;20056;-68
2023/03/24 07:06:41;;;;;;;8.35;2.47;;;16.90;83.00;;;;;;4147513;28;20522;-69
2023/03/24 07:09:41;;;;;;;5.72;1.55;;;16.90;83.70;;;;;;4141731;28;20104;-69
2023/03/24 07:12:22;;;;;;;8.70;2.30;;;16.80;82.80;;;;;;4140259;28;20504;-69
2023/03/24 07:15:06;;;;;;;6.43;1.67;;;16.80;82.60;;;;;;4139954;28;20057;-69
2023/03/24 07:17:47;;;;;;;7.10;1.48;;;16.80;82.50;;;;;;4126949;28;20053;-69
2023/03/24 07:20:41;;;;;;;9.20;2.55;;;16.80;82.60;;;;;;4125090;28;20081;-69
2023/03/24 07:23:31;;;;;;;9.88;2.70;;;16.80;82.60;;;;;;4145659;28;20056;-69
2023/03/24 07:26:16;;;;;;;7.55;2.30;;;16.80;82.30;;;;;;4151730;28;20100;-69
2023/03/24 07:29:00;;;;;;;6.75;1.83;;;16.70;82.10;;;;;;4142010;28;20049;-69
2023/03/24 07:31:59;;;;;;;10.02;2.35;;;16.70;82.40;;;;;;4153282;28;20072;-69
2023/03/24 07:34:42;;;;;;;9.07;2.28;;;16.60;82.40;;;;;;4142691;28;20176;-68
2023/03/24 07:37:23;;;;;;;7.80;1.83;;;16.60;83.40;;;;;;4140324;28;20389;-68
2023/03/24 07:40:10;;;;;;;7.82;1.50;;;16.60;82.40;;;;;;4143145;28;20100;-68
2023/03/24 07:42:51;;;;;;;10.50;1.77;;;16.50;82.60;;;;;;4133697;28;20053;-68
2023/03/24 07:45:56;;;;;;;9.88;2.33;;;16.50;83.50;;;;;;4110665;28;20401;-68
2023/03/24 07:48:41;;;;;;;10.90;2.38;;;16.50;83.40;;;;;;4129140;28;20532;-68
2023/03/24 07:51:22;;;;;;;9.27;2.50;;;16.40;82.50;;;;;;4143101;28;20073;-66
2023/03/24 07:54:09;;;;;;;7.30;1.70;;;16.40;82.50;;;;;;4147007;28;20128;-68
2023/03/24 07:56:56;;;;;;;11.30;2.65;;;16.40;82.70;;;;;;4125598;28;20599;-68
2023/03/24 07:59:37;;;;;;;10.48;2.33;;;16.40;82.60;;;;;;4131089;28;20045;-68
2023/03/24 08:02:24;;;;;;;9.02;2.38;;;16.40;82.40;;;;;;4153186;28;20052;-67
2023/03/24 08:05:29;;;;;;;15.48;3.20;;;16.30;82.60;;;;;;4127035;28;20189;-67
2023/03/24 08:08:31;;;;;;;14.65;2.72;;;16.40;82.40;;;;;;4131774;28;20473;-68
2023/03/24 08:11:12;;;;;;;8.93;2.05;;;16.50;82.10;;;;;;4126453;28;20699;-68
2023/03/24 08:13:54;;;;;;;13.93;3.15;;;16.50;81.60;;;;;;4119453;28;20841;-69
2023/03/24 08:16:37;;;;;;;9.15;2.00;;;16.60;81.20;;;;;;4142312;28;20540;-67
2023/03/24 08:19:18;;;;;;;13.68;2.63;;;16.60;81.20;;;;;;4157659;28;20082;-68
2023/03/24 08:21:59;;;;;;;14.15;2.97;;;16.60;80.90;;;;;;4142856;28;20049;-65
2023/03/24 08:24:40;;;;;;;12.68;2.80;;;16.60;80.90;;;;;;4129572;28;20049;-65
2023/03/24 08:27:21;;;;;;;15.88;3.10;;;16.60;81.00;;;;;;4123163;28;20497;-65
2023/03/24 08:30:04;;;;;;;12.93;3.17;;;16.60;80.90;;;;;;4128083;28;20177;-65
2023/03/24 08:32:46;;;;;;;13.13;2.58;;;16.60;80.70;;;;;;4134659;28;20069;-67
2023/03/24 08:35:29;;;;;;;14.88;3.22;;;16.60;80.80;;;;;;4143784;28;20049;-65
2023/03/24 08:38:10;;;;;;;11.18;2.85;;;16.60;81.20;;;;;;4145887;28;20045;-68
2023/03/24 08:40:52;;;;;;;21.00;3.22;;;16.60;81.60;;;;;;4145110;28;20185;-68
2023/03/24 08:43:34;;;;;;;13.57;2.90;;;16.60;81.80;;;;;;4144027;28;20052;-68
2023/03/24 08:46:16;;;;;;;21.67;3.22;;;16.60;81.70;;;;;;4150579;28;20052;-68
2023/03/24 08:48:57;;;;;;;16.13;2.83;;;16.50;81.50;;;;;;4129559;28;20464;-68
2023/03/24 08:51:38;;;;;;;12.75;3.15;;;16.60;81.90;;;;;;4133305;28;20111;-68
2023/03/24 08:54:20;;;;;;;14.82;3.83;;;16.50;81.80;;;;;;4147226;28;20181;-68
2023/03/24 08:57:01;;;;;;;10.35;2.33;;;16.50;81.90;;;;;;4146944;28;20176;-68
2023/03/24 08:59:42;;;;;;;14.82;3.15;;;16.50;81.80;;;;;;4140438;28;20053;-68
2023/03/24 09:02:25;;;;;;;10.30;1.83;;;16.50;81.70;;;;;;4130889;28;20408;-68
2023/03/24 09:05:06;;;;;;;11.27;2.78;;;16.50;81.70;;;;;;4139458;28;20060;-68
2023/03/24 09:07:49;;;;;;;12.48;2.72;;;16.60;81.80;;;;;;4146878;28;20127;-68
2023/03/24 09:10:30;;;;;;;11.52;2.40;;;16.60;82.20;;;;;;4146776;28;20060;-68
2023/03/24 09:13:11;;;;;;;9.93;2.08;;;16.60;81.20;;;;;;4114739;28;20108;-68
2023/03/24 09:15:57;;;;;;;10.25;2.35;;;16.50;81.20;;;;;;4112862;28;20070;-67
2023/03/24 09:18:39;;;;;;;16.48;2.72;;;16.50;81.10;;;;;;4130110;28;20053;-67
2023/03/24 09:21:20;;;;;;;11.18;2.08;;;16.50;81.30;;;;;;4161581;28;20128;-66
2023/03/24 09:24:01;;;;;;;13.15;2.28;;;16.50;81.30;;;;;;4160931;28;20064;-64
2023/03/24 09:26:42;;;;;;;10.85;2.58;;;16.40;81.40;;;;;;4160020;28;20119;-64
2023/03/24 09:29:23;;;;;;;10.68;2.97;;;16.50;81.40;;;;;;4161600;28;20407;-64
2023/03/24 09:32:04;;;;;;;15.07;3.63;;;16.50;81.10;;;;;;4141742;28;20100;-64
2023/03/24 09:34:46;;;;;;;11.30;2.72;;;16.50;80.70;;;;;;4127387;28;20057;-63
2023/03/24 09:37:29;;;;;;;12.50;2.75;;;16.50;81.10;;;;;;4129817;28;20069;-63
2023/03/24 09:40:18;;;;;;;10.50;2.50;;;16.50;80.50;;;;;;4128280;28;20555;-63
2023/03/24 09:43:04;;;;;;;10.55;2.53;;;16.50;81.10;;;;;;4131347;28;20065;-63
2023/03/24 09:45:49;;;;;;;9.02;2.08;;;16.60;80.60;;;;;;4137116;28;20068;-66
2023/03/24 09:48:36;;;;;;;8.35;2.03;;;16.60;80.60;;;;;;4161075;28;20418;-66
2023/03/24 09:51:22;;;;;;;11.02;3.13;;;16.60;80.70;;;;;;4161093;28;20515;-68
2023/03/24 09:54:11;;;;;;;11.18;3.40;;;16.70;81.70;;;;;;4161022;28;20056;-67
2023/03/24 09:56:54;;;;;;;12.57;3.20;;;16.70;80.30;;;;;;4160035;28;20119;-67
2023/03/24 09:59:38;;;;;;;9.13;1.52;;;16.60;80.10;;;;;;4160163;28;20048;-66
2023/03/24 10:02:20;;;;;;;10.55;2.47;;;16.70;79.80;;;;;;4128270;28;20061;-67
2023/03/24 10:05:01;;;;;;;15.07;3.38;;;16.70;79.40;;;;;;4123807;28;20058;-66
2023/03/24 10:07:51;;;;;;;15.43;2.40;;;16.70;79.00;;;;;;4113440;28;20814;-66
2023/03/24 10:10:40;;;;;;;11.50;2.50;;;16.60;79.00;;;;;;4112164;28;20348;-67
2023/03/24 10:13:29;;;;;;;10.10;1.98;;;16.60;79.50;;;;;;4112412;28;20092;-65
2023/03/24 10:16:15;;;;;;;9.48;1.77;;;16.60;79.80;;;;;;4110855;28;20057;-66
2023/03/24 10:19:01;;;;;;;9.30;2.38;;;16.50;79.80;;;;;;4112007;28;20201;-67
2023/03/24 10:21:47;;;;;;;9.50;1.70;;;16.60;80.60;;;;;;4111936;28;20077;-67
2023/03/24 10:24:36;;;;;;;8.98;2.30;;;16.60;80.00;;;;;;4131512;28;20580;-67
2023/03/24 10:27:25;;;;;;;11.25;2.95;;;16.60;79.90;;;;;;4128009;28;20053;-68
2023/03/24 10:30:15;;;;;;;11.80;3.50;;;16.60;80.40;;;;;;4151798;28;20064;-68
2023/03/24 10:32:57;;;;;;;12.20;2.25;;;16.70;79.60;;;;;;4135117;28;20125;-67
2023/03/24 10:35:42;;;;;;;11.13;1.73;;;16.70;79.50;;;;;;4127835;28;20850;-69
2023/03/24 10:38:23;;;;;;;3.00;1.17;;;16.80;79.60;;;;;;4128692;28;20505;-68
2023/03/24 10:41:06;;;;;;;9.00;2.20;;;16.80;79.70;;;;;;4128634;28;20125;-67
2023/03/24 10:43:48;;;;;;;12.45;2.15;;;16.80;79.50;;;;;;4128926;28;20703;-67
2023/03/24 10:46:31;;;;;;;12.02;2.53;;;16.80;78.90;;;;;;4133080;28;20109;-67
2023/03/24 10:49:18;;;;;;;15.00;2.08;;;16.90;78.00;;;;;;4127593;28;20069;-67
2023/03/24 10:52:02;;;;;;;9.07;1.95;;;16.90;77.80;;;;;;4133881;28;20183;-67
2023/03/24 10:54:54;;;;;;;12.77;2.13;;;16.90;78.00;;;;;;4143420;28;20781;-67
2023/03/24 10:57:36;;;;;;;11.90;2.28;;;16.90;78.00;;;;;;4143820;28;20196;-66
2023/03/24 11:00:22;;;;;;;12.30;2.90;;;16.90;78.10;;;;;;4128650;28;20053;-68
2023/03/24 11:03:07;;;;;;;9.70;2.53;;;16.90;77.60;;;;;;4130156;28;20169;-68
2023/03/24 11:05:47;;;;;;;9.93;1.90;;;16.90;77.50;;;;;;4134311;28;20103;-68
2023/03/24 11:08:34;;;;;;;10.75;2.58;;;17.00;77.90;;;;;;4133442;28;20057;-67
2023/03/24 11:11:29;;;;;;;9.15;1.95;;;16.90;77.60;;;;;;4127566;28;20056;-67
2023/03/24 11:14:22;;;;;;;11.25;2.47;;;16.90;77.80;;;;;;4138369;28;20057;-68
2023/03/24 11:17:13;;;;;;;17.23;2.97;;;16.90;77.40;;;;;;4111246;28;20054;-68
2023/03/24 11:19:58;;;;;;;17.67;3.25;;;16.90;77.50;;;;;;4140346;28;20587;-68
2023/03/24 11:22:39;;;;;;;10.82;2.45;;;16.90;77.30;;;;;;4144390;28;20191;-68
2023/03/24 11:25:26;;;;;;;11.32;1.98;;;16.90;77.50;;;;;;4126667;28;20102;-67
2023/03/24 11:28:09;;;;;;;14.43;2.78;;;16.80;78.20;;;;;;4141986;28;20045;-68
2023/03/24 11:30:53;;;;;;;13.45;3.03;;;16.90;77.80;;;;;;4141672;28;20100;-69
2023/03/24 11:33:42;;;;;;;8.05;2.15;;;16.80;77.80;;;;;;4139077;28;20041;-68
2023/03/24 11:36:42;;;;;;;11.75;3.00;;;16.90;77.80;;;;;;4137400;28;20176;-69
2023/03/24 11:39:27;;;;;;;12.30;2.45;;;16.80;77.30;;;;;;4126748;28;20053;-68
2023/03/24 11:42:16;;;;;;;7.53;1.48;;;16.90;77.90;;;;;;4141291;28;20053;-68
2023/03/24 11:44:56;;;;;;;12.80;2.83;;;16.90;77.40;;;;;;4140870;28;20100;-69
2023/03/24 11:47:39;;;;;;;10.48;2.20;;;16.90;77.50;;;;;;4126534;28;20048;-69
2023/03/24 11:50:25;;;;;;;16.55;2.60;;;16.90;77.60;;;;;;4129342;28;20121;-69
2023/03/24 11:53:13;;;;;;;11.10;2.30;;;16.90;77.70;;;;;;4132687;28;20061;-69
2023/03/24 11:56:01;;;;;;;9.60;2.05;;;16.90;77.00;;;;;;4133105;28;20258;-69
2023/03/24 11:58:46;;;;;;;7.88;2.28;;;17.00;76.50;;;;;;4142708;28;20061;-69
2023/03/24 12:01:32;;;;;;;9.07;2.40;;;17.00;76.60;;;;;;4142575;28;20057;-69
2023/03/24 12:04:27;;;;;;;12.57;2.38;;;17.00;76.30;;;;;;4140854;28;20052;-69
2023/03/24 12:07:34;;;;;;;9.45;2.15;;;17.00;75.90;;;;;;4118710;28;20058;-69
2023/03/24 12:10:26;;;;;;;7.35;1.80;;;17.00;75.10;;;;;;4126409;28;20049;-70
2023/03/24 12:13:12;;;;;;;8.85;1.95;;;17.10;75.80;;;;;;4126089;28;20049;-69
2023/03/24 12:16:16;;;;;;;9.95;1.75;;;17.10;75.60;;;;;;4126357;28;20053;-70
2023/03/24 12:19:18;;;;;;;9.95;1.98;;;17.10;75.00;;;;;;4140812;28;20157;-69
2023/03/24 12:22:08;;;;;;;10.13;2.10;;;17.10;75.40;;;;;;4126225;28;20109;-70
2023/03/24 12:25:18;;;;;;;9.07;2.17;;;17.10;75.00;;;;;;4135504;28;20048;-67
2023/03/24 12:28:12;;;;;;;7.25;1.80;;;17.20;75.10;;;;;;4142682;28;20049;-67
2023/03/24 12:31:08;;;;;;;8.50;2.05;;;17.20;75.10;;;;;;4142263;28;20053;-67
2023/03/24 12:33:58;;;;;;;9.38;2.00;;;17.20;74.80;;;;;;4126461;28;20049;-67
2023/03/24 12:36:46;;;;;;;6.85;1.65;;;17.20;74.80;;;;;;4135598;28;20527;-68
2023/03/24 12:39:31;;;;;;;7.28;2.03;;;17.30;75.20;;;;;;4126469;28;20053;-68
2023/03/24 12:42:13;;;;;;;7.43;2.05;;;17.30;75.20;;;;;;4135382;28;20099;-67
2023/03/24 12:45:27;;;;;;;10.32;2.05;;;17.30;75.60;;;;;;4142546;28;20053;-70
2023/03/24 12:48:41;;;;;;;6.47;1.40;;;17.40;74.10;;;;;;4126334;28;20061;-69
2023/03/24 12:51:34;;;;;;;6.95;2.03;;;17.40;74.90;;;;;;4126015;28;20182;-69
2023/03/24 12:54:28;;;;;;;8.23;2.13;;;17.40;75.10;;;;;;4119928;28;20555;-70
2023/03/24 12:57:14;;;;;;;11.48;2.38;;;17.40;75.40;;;;;;4124628;28;20092;-70
2023/03/24 12:59:59;;;;;;;8.32;2.20;;;17.40;74.60;;;;;;4124884;28;20061;-69
2023/03/24 13:02:45;;;;;;;7.15;1.73;;;17.40;75.60;;;;;;4136942;28;20416;-69
2023/03/24 13:05:31;;;;;;;6.35;1.38;;;17.40;74.60;;;;;;4141391;28;20081;-70
2023/03/24 13:08:18;;;;;;;12.02;1.92;;;17.40;74.40;;;;;;4142237;28;20483;-69
2023/03/24 13:11:04;;;;;;;7.70;2.00;;;17.40;74.60;;;;;;4140616;28;20531;-70
2023/03/24 13:13:48;;;;;;;7.47;2.08;;;17.40;74.30;;;;;;4128759;28;20120;-69
2023/03/24 13:16:32;;;;;;;10.45;2.35;;;17.50;74.10;;;;;;4128970;28;20165;-69
2023/03/24 13:19:19;;;;;;;12.07;2.40;;;17.50;74.50;;;;;;4128683;28;20051;-69
2023/03/24 13:22:02;;;;;;;11.40;2.08;;;17.50;74.60;;;;;;4128766;28;20053;-69
2023/03/24 13:24:44;;;;;;;8.10;1.58;;;17.50;74.60;;;;;;4128868;28;20065;-70
2023/03/24 13:27:29;;;;;;;7.85;2.28;;;17.50;75.10;;;;;;4132748;28;20172;-69
2023/03/24 13:30:30;;;;;;;12.13;2.22;;;17.50;74.80;;;;;;4127402;28;20108;-69
2023/03/24 13:33:15;;;;;;;11.10;2.63;;;17.60;74.00;;;;;;4128286;28;20069;-69
2023/03/24 13:36:12;;;;;;;9.00;2.22;;;17.60;73.70;;;;;;4132410;28;20053;-68
2023/03/24 13:38:56;;;;;;;10.23;2.10;;;17.60;73.40;;;;;;4142264;28;20048;-68
2023/03/24 13:41:38;;;;;;;9.00;2.38;;;17.60;74.00;;;;;;4141706;28;20181;-68
2023/03/24 13:44:22;;;;;;;4.65;1.70;;;17.60;73.70;;;;;;4142555;28;20529;-68
2023/03/24 13:47:13;;;;;;;8.10;1.83;;;17.60;74.10;;;;;;4128619;28;20053;-68
2023/03/24 13:50:00;;;;;;;10.40;2.60;;;17.60;73.90;;;;;;4131650;28;20048;-68
2023/03/24 13:52:46;;;;;;;9.38;1.80;;;17.70;73.80;;;;;;4144523;28;20065;-68
2023/03/24 13:55:29;;;;;;;9.68;2.17;;;17.60;72.90;;;;;;4134648;28;20062;-68
2023/03/24 13:58:18;;;;;;;7.25;2.38;;;17.60;72.70;;;;;;4128363;28;20421;-68
2023/03/24 14:01:18;;;;;;;9.25;2.28;;;17.60;72.10;;;;;;4128378;28;20057;-68
2023/03/24 14:04:22;;;;;;;5.30;2.05;;;17.60;71.70;;;;;;4127311;28;20077;-68
2023/03/24 14:07:31;;;;;;;8.73;1.70;;;17.70;72.20;;;;;;4128032;28;20185;-68
2023/03/24 14:10:38;;;;;;;7.85;1.75;;;17.70;71.70;;;;;;4127934;28;20053;-68
2023/03/24 14:13:36;;;;;;;12.05;2.63;;;17.60;72.10;;;;;;4128009;28;20444;-68
2023/03/24 14:16:36;;;;;;;7.18;2.08;;;17.70;72.10;;;;;;4128477;28;20054;-68
2023/03/24 14:19:23;;;;;;;11.90;2.20;;;17.70;72.40;;;;;;4143110;28;20053;-68
2023/03/24 14:22:11;;;;;;;8.05;2.00;;;17.70;72.80;;;;;;4144432;28;20053;-68
2023/03/24 14:24:59;;;;;;;11.88;1.92;;;17.70;72.70;;;;;;4142410;28;20057;-68
2023/03/24 14:27:43;;;;;;;8.48;1.95;;;17.80;72.80;;;;;;4144151;28;20048;-68
2023/03/24 14:30:27;;;;;;;11.30;2.13;;;17.80;73.10;;;;;;4144407;28;20481;-67